sensor_id;sensor_type;location;lat;lon;timestamp;temperature;humidity
43808;DHT22;29438;50.664;10.098;2023-04-03T00:00:06;1.30;81.50
43808;DHT22;29438;50.664;10.098;2023-04-03T00:02:32;1.30;81.50
43808;DHT22;29438;50.664;10.098;2023-04-03T00:04:58;1.20;81.70
43808;DHT22;29438;50.664;10.098;2023-04-03T00:07:23;1.20;81.70
43808;DHT22;29438;50.664;10.098;2023-04-03T00:09:48;1.10;81.90
43808;DHT22;29438;50.664;10.098;2023-04-03T00:12:14;1.00;82.00
43808;DHT22;29438;50.664;10.098;2023-04-03T00:14:40;1.00;82.40
43808;DHT22;29438;50.664;10.098;2023-04-03T00:17:06;0.90;82.60
43808;DHT22;29438;50.664;10.098;2023-04-03T00:19:31;0.90;83.10
43808;DHT22;29438;50.664;10.098;2023-04-03T00:21:57;0.80;82.90
43808;DHT22;29438;50.664;10.098;2023-04-03T00:24:22;0.80;82.80
43808;DHT22;29438;50.664;10.098;2023-04-03T00:26:48;0.80;83.00
43808;DHT22;29438;50.664;10.098;2023-04-03T00:29:13;0.70;83.30
43808;DHT22;29438;50.664;10.098;2023-04-03T00:31:40;0.60;83.50
43808;DHT22;29438;50.664;10.098;2023-04-03T00:34:05;0.60;83.70
43808;DHT22;29438;50.664;10.098;2023-04-03T00:36:31;0.60;83.50
43808;DHT22;29438;50.664;10.098;2023-04-03T00:38:56;0.50;83.30
43808;DHT22;29438;50.664;10.098;2023-04-03T00:41:22;0.50;83.80
43808;DHT22;29438;50.664;10.098;2023-04-03T00:43:48;0.40;84.70
43808;DHT22;29438;50.664;10.098;2023-04-03T00:46:13;0.30;84.70
43808;DHT22;29438;50.664;10.098;2023-04-03T00:48:45;0.30;84.40
43808;DHT22;29438;50.664;10.098;2023-04-03T00:51:13;0.30;84.60
43808;DHT22;29438;50.664;10.098;2023-04-03T00:54:03;0.30;85.00
43808;DHT22;29438;50.664;10.098;2023-04-03T00:56:31;0.20;85.50
43808;DHT22;29438;50.664;10.098;2023-04-03T00:59:08;0.10;85.90
43808;DHT22;29438;50.664;10.098;2023-04-03T01:01:35;0.00;86.10
43808;DHT22;29438;50.664;10.098;2023-04-03T01:04:02;0.00;86.50
43808;DHT22;29438;50.664;10.098;2023-04-03T01:06:32;0.00;86.30
43808;DHT22;29438;50.664;10.098;2023-04-03T01:08:59;0.00;86.30
43808;DHT22;29438;50.664;10.098;2023-04-03T01:11:25;0.10;86.20
43808;DHT22;29438;50.664;10.098;2023-04-03T01:13:52;0.10;86.10
43808;DHT22;29438;50.664;10.098;2023-04-03T01:16:18;0.00;86.30
43808;DHT22;29438;50.664;10.098;2023-04-03T01:18:45;0.00;86.40
43808;DHT22;29438;50.664;10.098;2023-04-03T01:24:42;0.00;86.70
43808;DHT22;29438;50.664;10.098;2023-04-03T01:27:09;0.00;86.60
43808;DHT22;29438;50.664;10.098;2023-04-03T01:29:36;0.00;86.70
43808;DHT22;29438;50.664;10.098;2023-04-03T01:32:03;0.00;86.70
43808;DHT22;29438;50.664;10.098;2023-04-03T01:34:30;0.00;86.70
43808;DHT22;29438;50.664;10.098;2023-04-03T01:36:56;0.00;86.90
43808;DHT22;29438;50.664;10.098;2023-04-03T01:39:22;0.00;86.80
43808;DHT22;29438;50.664;10.098;2023-04-03T01:41:48;0.00;87.10
43808;DHT22;29438;50.664;10.098;2023-04-03T01:44:14;0.00;87.10
43808;DHT22;29438;50.664;10.098;2023-04-03T01:46:40;0.00;87.30
43808;DHT22;29438;50.664;10.098;2023-04-03T01:49:07;0.00;87.40
43808;DHT22;29438;50.664;10.098;2023-04-03T01:51:33;-3276.70;87.50
43808;DHT22;29438;50.664;10.098;2023-04-03T01:53:58;0.00;87.50
43808;DHT22;29438;50.664;10.098;2023-04-03T01:56:24;-3276.70;87.70
43808;DHT22;29438;50.664;10.098;2023-04-03T01:58:50;-3276.70;87.60
43808;DHT22;29438;50.664;10.098;2023-04-03T02:01:16;-3276.70;87.80
43808;DHT22;29438;50.664;10.098;2023-04-03T02:03:41;-3276.70;87.60
43808;DHT22;29438;50.664;10.098;2023-04-03T02:06:07;0.00;87.60
43808;DHT22;29438;50.664;10.098;2023-04-03T02:08:32;0.00;87.50
43808;DHT22;29438;50.664;10.098;2023-04-03T02:10:58;0.00;87.70
43808;DHT22;29438;50.664;10.098;2023-04-03T02:13:23;-3276.70;87.50
43808;DHT22;29438;50.664;10.098;2023-04-03T02:15:49;0.00;87.30
43808;DHT22;29438;50.664;10.098;2023-04-03T02:18:15;-3276.70;87.50
43808;DHT22;29438;50.664;10.098;2023-04-03T02:20:40;-3276.70;87.60
43808;DHT22;29438;50.664;10.098;2023-04-03T02:23:06;-3276.70;87.60
43808;DHT22;29438;50.664;10.098;2023-04-03T02:25:32;-3276.70;87.70
43808;DHT22;29438;50.664;10.098;2023-04-03T02:27:58;-3276.70;87.70
43808;DHT22;29438;50.664;10.098;2023-04-03T02:30:23;-3276.70;87.80
43808;DHT22;29438;50.664;10.098;2023-04-03T02:32:49;-3276.70;87.80
43808;DHT22;29438;50.664;10.098;2023-04-03T02:35:15;-3276.70;88.00
43808;DHT22;29438;50.664;10.098;2023-04-03T02:37:41;-3276.70;87.80
43808;DHT22;29438;50.664;10.098;2023-04-03T02:40:07;-3276.60;87.70
43808;DHT22;29438;50.664;10.098;2023-04-03T02:42:32;-3276.70;87.80
43808;DHT22;29438;50.664;10.098;2023-04-03T02:44:58;-3276.70;87.70
43808;DHT22;29438;50.664;10.098;2023-04-03T02:47:26;-3276.70;87.70
43808;DHT22;29438;50.664;10.098;2023-04-03T02:49:52;-3276.60;87.80
43808;DHT22;29438;50.664;10.098;2023-04-03T02:52:18;-3276.60;88.00
43808;DHT22;29438;50.664;10.098;2023-04-03T02:54:43;-3276.60;87.70
43808;DHT22;29438;50.664;10.098;2023-04-03T02:57:09;-3276.60;87.50
43808;DHT22;29438;50.664;10.098;2023-04-03T02:59:36;-3276.60;87.70
43808;DHT22;29438;50.664;10.098;2023-04-03T03:02:01;-3276.60;87.80
43808;DHT22;29438;50.664;10.098;2023-04-03T03:04:27;-3276.60;87.70
43808;DHT22;29438;50.664;10.098;2023-04-03T03:06:52;-3276.60;87.90
43808;DHT22;29438;50.664;10.098;2023-04-03T03:09:18;-3276.60;88.00
43808;DHT22;29438;50.664;10.098;2023-04-03T03:11:44;-3276.60;88.10
43808;DHT22;29438;50.664;10.098;2023-04-03T03:14:09;-3276.60;88.10
43808;DHT22;29438;50.664;10.098;2023-04-03T03:16:35;-3276.50;88.00
43808;DHT22;29438;50.664;10.098;2023-04-03T03:19:01;-3276.50;88.10
43808;DHT22;29438;50.664;10.098;2023-04-03T03:21:26;-3276.50;88.20
43808;DHT22;29438;50.664;10.098;2023-04-03T03:23:52;-3276.50;88.10
43808;DHT22;29438;50.664;10.098;2023-04-03T03:26:17;-3276.50;88.30
43808;DHT22;29438;50.664;10.098;2023-04-03T03:28:43;-3276.50;88.20
43808;DHT22;29438;50.664;10.098;2023-04-03T03:31:09;-3276.40;88.30
43808;DHT22;29438;50.664;10.098;2023-04-03T03:33:35;-3276.40;88.20
43808;DHT22;29438;50.664;10.098;2023-04-03T03:36:01;-3276.40;88.20
43808;DHT22;29438;50.664;10.098;2023-04-03T03:38:26;-3276.40;88.20
43808;DHT22;29438;50.664;10.098;2023-04-03T03:40:52;-3276.30;88.30
43808;DHT22;29438;50.664;10.098;2023-04-03T03:43:17;-3276.30;88.10
43808;DHT22;29438;50.664;10.098;2023-04-03T03:45:44;-3276.30;88.40
43808;DHT22;29438;50.664;10.098;2023-04-03T03:48:10;-3276.30;88.50
43808;DHT22;29438;50.664;10.098;2023-04-03T03:50:36;-3276.30;88.40
43808;DHT22;29438;50.664;10.098;2023-04-03T03:53:02;-3276.40;88.60
43808;DHT22;29438;50.664;10.098;2023-04-03T03:55:28;-3276.30;88.50
43808;DHT22;29438;50.664;10.098;2023-04-03T03:57:53;-3276.30;88.60
43808;DHT22;29438;50.664;10.098;2023-04-03T04:00:19;-3276.30;88.50
43808;DHT22;29438;50.664;10.098;2023-04-03T04:02:44;-3276.20;88.60
43808;DHT22;29438;50.664;10.098;2023-04-03T04:05:11;-3276.20;88.40
43808;DHT22;29438;50.664;10.098;2023-04-03T04:07:36;-3276.20;88.50
43808;DHT22;29438;50.664;10.098;2023-04-03T04:10:02;-3276.20;88.30
43808;DHT22;29438;50.664;10.098;2023-04-03T04:12:28;-3276.20;88.20
43808;DHT22;29438;50.664;10.098;2023-04-03T04:14:53;-3276.10;88.10
43808;DHT22;29438;50.664;10.098;2023-04-03T04:17:19;-3276.10;88.10
43808;DHT22;29438;50.664;10.098;2023-04-03T04:19:45;-3276.10;87.80
43808;DHT22;29438;50.664;10.098;2023-04-03T04:22:10;-3276.10;87.10
43808;DHT22;29438;50.664;10.098;2023-04-03T04:24:36;-3276.10;87.30
43808;DHT22;29438;50.664;10.098;2023-04-03T04:27:01;-3276.00;86.90
43808;DHT22;29438;50.664;10.098;2023-04-03T04:29:27;-3275.90;86.60
43808;DHT22;29438;50.664;10.098;2023-04-03T04:31:52;-3276.00;86.60
43808;DHT22;29438;50.664;10.098;2023-04-03T04:34:18;-3276.00;87.00
43808;DHT22;29438;50.664;10.098;2023-04-03T04:36:43;-3276.00;86.60
43808;DHT22;29438;50.664;10.098;2023-04-03T04:39:09;-3276.00;87.30
43808;DHT22;29438;50.664;10.098;2023-04-03T04:41:34;-3276.00;87.00
43808;DHT22;29438;50.664;10.098;2023-04-03T04:44:00;-3276.00;86.30
43808;DHT22;29438;50.664;10.098;2023-04-03T04:46:26;-3275.90;85.40
43808;DHT22;29438;50.664;10.098;2023-04-03T04:48:51;-3275.90;85.80
43808;DHT22;29438;50.664;10.098;2023-04-03T04:51:17;-3275.90;86.00
43808;DHT22;29438;50.664;10.098;2023-04-03T04:53:43;-3275.90;86.00
43808;DHT22;29438;50.664;10.098;2023-04-03T04:56:09;-3276.00;86.60
43808;DHT22;29438;50.664;10.098;2023-04-03T04:58:35;-3275.90;86.50
43808;DHT22;29438;50.664;10.098;2023-04-03T05:01:05;-3275.90;86.80
43808;DHT22;29438;50.664;10.098;2023-04-03T05:03:31;-3276.00;87.60
43808;DHT22;29438;50.664;10.098;2023-04-03T05:05:57;-3276.00;88.00
43808;DHT22;29438;50.664;10.098;2023-04-03T05:08:23;-3276.00;88.10
43808;DHT22;29438;50.664;10.098;2023-04-03T05:10:48;-3275.90;88.50
43808;DHT22;29438;50.664;10.098;2023-04-03T05:13:14;-3275.90;88.20
43808;DHT22;29438;50.664;10.098;2023-04-03T05:15:40;-3275.90;88.40
43808;DHT22;29438;50.664;10.098;2023-04-03T05:18:05;-3275.80;88.20
43808;DHT22;29438;50.664;10.098;2023-04-03T05:20:32;-3275.90;88.20
43808;DHT22;29438;50.664;10.098;2023-04-03T05:22:57;-3275.80;88.10
43808;DHT22;29438;50.664;10.098;2023-04-03T05:25:23;-3275.80;88.10
43808;DHT22;29438;50.664;10.098;2023-04-03T05:27:49;-3275.80;88.10
43808;DHT22;29438;50.664;10.098;2023-04-03T05:30:15;-3275.80;87.90
43808;DHT22;29438;50.664;10.098;2023-04-03T05:32:40;-3275.80;87.70
43808;DHT22;29438;50.664;10.098;2023-04-03T05:35:06;-3275.80;88.00
43808;DHT22;29438;50.664;10.098;2023-04-03T05:37:33;-3275.80;87.60
43808;DHT22;29438;50.664;10.098;2023-04-03T05:39:58;-3275.80;87.40
43808;DHT22;29438;50.664;10.098;2023-04-03T05:42:26;-3275.90;87.50
43808;DHT22;29438;50.664;10.098;2023-04-03T05:44:52;-3275.80;87.20
43808;DHT22;29438;50.664;10.098;2023-04-03T05:47:18;-3275.80;87.40
43808;DHT22;29438;50.664;10.098;2023-04-03T05:49:44;-3275.90;87.10
43808;DHT22;29438;50.664;10.098;2023-04-03T05:52:28;-3275.90;87.10
43808;DHT22;29438;50.664;10.098;2023-04-03T05:54:55;-3275.90;86.80
43808;DHT22;29438;50.664;10.098;2023-04-03T05:57:20;-3275.90;86.90
43808;DHT22;29438;50.664;10.098;2023-04-03T05:59:46;-3275.90;87.20
43808;DHT22;29438;50.664;10.098;2023-04-03T06:02:15;-3275.90;86.80
43808;DHT22;29438;50.664;10.098;2023-04-03T06:04:41;-3275.90;87.00
43808;DHT22;29438;50.664;10.098;2023-04-03T06:07:08;-3275.90;87.40
43808;DHT22;29438;50.664;10.098;2023-04-03T06:09:35;-3275.90;86.90
43808;DHT22;29438;50.664;10.098;2023-04-03T06:12:01;-3275.90;87.30
43808;DHT22;29438;50.664;10.098;2023-04-03T06:14:27;-3275.90;87.10
43808;DHT22;29438;50.664;10.098;2023-04-03T06:16:53;-3275.90;87.20
43808;DHT22;29438;50.664;10.098;2023-04-03T06:19:20;-3276.00;87.10
43808;DHT22;29438;50.664;10.098;2023-04-03T06:21:46;-3275.90;86.80
43808;DHT22;29438;50.664;10.098;2023-04-03T06:24:14;-3276.00;86.80
43808;DHT22;29438;50.664;10.098;2023-04-03T06:26:40;-3276.10;86.60
43808;DHT22;29438;50.664;10.098;2023-04-03T06:29:05;-3276.60;86.30
43808;DHT22;29438;50.664;10.098;2023-04-03T06:31:31;0.20;84.80
43808;DHT22;29438;50.664;10.098;2023-04-03T06:33:57;0.20;83.30
43808;DHT22;29438;50.664;10.098;2023-04-03T06:36:22;0.00;83.60
43808;DHT22;29438;50.664;10.098;2023-04-03T06:38:48;-3276.70;84.60
43808;DHT22;29438;50.664;10.098;2023-04-03T06:41:14;-3276.40;85.00
43808;DHT22;29438;50.664;10.098;2023-04-03T06:43:42;-3276.20;85.30
43808;DHT22;29438;50.664;10.098;2023-04-03T06:46:16;-3276.20;85.90
43808;DHT22;29438;50.664;10.098;2023-04-03T06:48:42;-3276.20;86.00
43808;DHT22;29438;50.664;10.098;2023-04-03T06:51:26;-3276.20;85.30
43808;DHT22;29438;50.664;10.098;2023-04-03T06:53:54;-3276.20;85.30
43808;DHT22;29438;50.664;10.098;2023-04-03T06:56:20;-3276.10;86.00
43808;DHT22;29438;50.664;10.098;2023-04-03T06:58:46;-3276.20;85.90
43808;DHT22;29438;50.664;10.098;2023-04-03T07:01:14;-3276.30;86.40
43808;DHT22;29438;50.664;10.098;2023-04-03T07:03:40;-3276.40;85.90
43808;DHT22;29438;50.664;10.098;2023-04-03T07:06:07;-3276.40;85.20
43808;DHT22;29438;50.664;10.098;2023-04-03T07:08:33;-3276.60;85.40
43808;DHT22;29438;50.664;10.098;2023-04-03T07:10:59;-3276.50;84.60
43808;DHT22;29438;50.664;10.098;2023-04-03T07:13:25;-3276.40;84.90
43808;DHT22;29438;50.664;10.098;2023-04-03T07:15:51;-3276.40;84.40
43808;DHT22;29438;50.664;10.098;2023-04-03T07:18:17;-3276.70;84.60
43808;DHT22;29438;50.664;10.098;2023-04-03T07:20:43;0.20;83.20
43808;DHT22;29438;50.664;10.098;2023-04-03T07:23:08;1.00;79.30
43808;DHT22;29438;50.664;10.098;2023-04-03T07:25:34;1.30;76.00
43808;DHT22;29438;50.664;10.098;2023-04-03T07:27:59;1.40;76.50
43808;DHT22;29438;50.664;10.098;2023-04-03T07:30:25;1.20;75.40
43808;DHT22;29438;50.664;10.098;2023-04-03T07:32:51;0.30;76.60
43808;DHT22;29438;50.664;10.098;2023-04-03T07:35:17;0.00;77.90
43808;DHT22;29438;50.664;10.098;2023-04-03T07:37:43;-3276.60;79.60
43808;DHT22;29438;50.664;10.098;2023-04-03T07:40:09;-3276.50;79.40
43808;DHT22;29438;50.664;10.098;2023-04-03T07:42:35;0.00;79.50
43808;DHT22;29438;50.664;10.098;2023-04-03T07:45:02;0.20;79.90
43808;DHT22;29438;50.664;10.098;2023-04-03T07:47:28;0.20;77.40
43808;DHT22;29438;50.664;10.098;2023-04-03T07:49:53;0.60;77.50
43808;DHT22;29438;50.664;10.098;2023-04-03T07:52:18;0.90;76.40
43808;DHT22;29438;50.664;10.098;2023-04-03T07:54:44;1.30;75.20
43808;DHT22;29438;50.664;10.098;2023-04-03T07:57:10;1.60;74.50
43808;DHT22;29438;50.664;10.098;2023-04-03T07:59:35;1.50;75.50
43808;DHT22;29438;50.664;10.098;2023-04-03T08:02:01;1.00;75.50
43808;DHT22;29438;50.664;10.098;2023-04-03T08:04:26;0.50;78.00
43808;DHT22;29438;50.664;10.098;2023-04-03T08:06:52;0.60;78.70
43808;DHT22;29438;50.664;10.098;2023-04-03T08:09:18;0.50;78.60
43808;DHT22;29438;50.664;10.098;2023-04-03T08:11:44;0.40;77.80
43808;DHT22;29438;50.664;10.098;2023-04-03T08:14:10;0.30;77.20
43808;DHT22;29438;50.664;10.098;2023-04-03T08:16:42;0.90;76.30
43808;DHT22;29438;50.664;10.098;2023-04-03T08:19:08;1.20;73.70
43808;DHT22;29438;50.664;10.098;2023-04-03T08:21:34;1.80;73.10
43808;DHT22;29438;50.664;10.098;2023-04-03T08:23:59;2.40;70.50
43808;DHT22;29438;50.664;10.098;2023-04-03T08:26:25;4.80;63.70
43808;DHT22;29438;50.664;10.098;2023-04-03T08:28:52;6.70;56.40
43808;DHT22;29438;50.664;10.098;2023-04-03T08:31:18;7.80;54.30
43808;DHT22;29438;50.664;10.098;2023-04-03T08:33:45;8.40;48.50
43808;DHT22;29438;50.664;10.098;2023-04-03T08:36:22;5.70;52.90
43808;DHT22;29438;50.664;10.098;2023-04-03T08:38:50;4.00;61.20
43808;DHT22;29438;50.664;10.098;2023-04-03T08:41:35;5.80;59.40
43808;DHT22;29438;50.664;10.098;2023-04-03T08:44:11;6.50;55.00
43808;DHT22;29438;50.664;10.098;2023-04-03T08:49:25;4.90;58.30
43808;DHT22;29438;50.664;10.098;2023-04-03T08:51:52;5.10;61.10
43808;DHT22;29438;50.664;10.098;2023-04-03T08:54:31;3.00;68.10
43808;DHT22;29438;50.664;10.098;2023-04-03T08:56:58;1.90;71.40
43808;DHT22;29438;50.664;10.098;2023-04-03T08:59:37;1.20;72.70
43808;DHT22;29438;50.664;10.098;2023-04-03T09:04:49;1.50;73.70
43808;DHT22;29438;50.664;10.098;2023-04-03T09:07:36;2.20;71.40
43808;DHT22;29438;50.664;10.098;2023-04-03T09:10:03;2.90;68.00
43808;DHT22;29438;50.664;10.098;2023-04-03T09:12:39;3.80;65.50
43808;DHT22;29438;50.664;10.098;2023-04-03T09:18:03;4.80;60.10
43808;DHT22;29438;50.664;10.098;2023-04-03T09:23:22;5.20;57.20
43808;DHT22;29438;50.664;10.098;2023-04-03T09:25:49;4.60;58.90
43808;DHT22;29438;50.664;10.098;2023-04-03T09:28:15;3.80;60.70
43808;DHT22;29438;50.664;10.098;2023-04-03T09:30:41;3.60;57.00
43808;DHT22;29438;50.664;10.098;2023-04-03T09:33:06;2.90;59.50
43808;DHT22;29438;50.664;10.098;2023-04-03T09:35:34;2.90;62.50
43808;DHT22;29438;50.664;10.098;2023-04-03T09:40:37;3.10;60.20
43808;DHT22;29438;50.664;10.098;2023-04-03T09:43:21;2.70;59.40
43808;DHT22;29438;50.664;10.098;2023-04-03T09:45:49;3.20;61.60
43808;DHT22;29438;50.664;10.098;2023-04-03T09:48:16;3.50;60.40
43808;DHT22;29438;50.664;10.098;2023-04-03T09:50:55;4.30;57.50
43808;DHT22;29438;50.664;10.098;2023-04-03T09:55:56;3.90;55.80
43808;DHT22;29438;50.664;10.098;2023-04-03T09:58:31;3.80;56.10
43808;DHT22;29438;50.664;10.098;2023-04-03T10:01:00;3.50;58.20
43808;DHT22;29438;50.664;10.098;2023-04-03T10:03:34;4.00;57.20
43808;DHT22;29438;50.664;10.098;2023-04-03T10:06:02;4.20;56.30
43808;DHT22;29438;50.664;10.098;2023-04-03T10:08:33;4.20;54.70
43808;DHT22;29438;50.664;10.098;2023-04-03T10:11:28;3.80;53.40
43808;DHT22;29438;50.664;10.098;2023-04-03T10:14:02;4.10;55.00
43808;DHT22;29438;50.664;10.098;2023-04-03T10:16:36;4.20;55.30
43808;DHT22;29438;50.664;10.098;2023-04-03T10:19:17;4.10;53.40
43808;DHT22;29438;50.664;10.098;2023-04-03T10:22:12;4.30;56.10
43808;DHT22;29438;50.664;10.098;2023-04-03T10:24:48;4.50;54.90
43808;DHT22;29438;50.664;10.098;2023-04-03T10:27:18;4.00;51.80
43808;DHT22;29438;50.664;10.098;2023-04-03T10:29:55;4.90;54.20
43808;DHT22;29438;50.664;10.098;2023-04-03T10:32:44;4.70;51.80
43808;DHT22;29438;50.664;10.098;2023-04-03T10:35:37;5.40;55.10
43808;DHT22;29438;50.664;10.098;2023-04-03T10:38:40;5.20;55.10
43808;DHT22;29438;50.664;10.098;2023-04-03T10:41:12;5.10;54.90
43808;DHT22;29438;50.664;10.098;2023-04-03T10:46:33;5.50;57.10
43808;DHT22;29438;50.664;10.098;2023-04-03T10:49:05;4.80;52.30
43808;DHT22;29438;50.664;10.098;2023-04-03T10:51:57;5.00;52.20
43808;DHT22;29438;50.664;10.098;2023-04-03T10:57:23;4.80;49.20
43808;DHT22;29438;50.664;10.098;2023-04-03T10:59:53;5.10;52.00
43808;DHT22;29438;50.664;10.098;2023-04-03T11:04:54;5.40;56.30
43808;DHT22;29438;50.664;10.098;2023-04-03T11:07:23;5.00;51.10
43808;DHT22;29438;50.664;10.098;2023-04-03T11:09:58;5.00;52.40
43808;DHT22;29438;50.664;10.098;2023-04-03T11:12:44;5.00;54.50
43808;DHT22;29438;50.664;10.098;2023-04-03T11:15:15;5.30;53.30
43808;DHT22;29438;50.664;10.098;2023-04-03T11:18:06;5.60;58.40
43808;DHT22;29438;50.664;10.098;2023-04-03T11:20:32;5.80;54.90
43808;DHT22;29438;50.664;10.098;2023-04-03T11:23:19;5.00;55.50
43808;DHT22;29438;50.664;10.098;2023-04-03T11:25:51;4.80;59.30
43808;DHT22;29438;50.664;10.098;2023-04-03T11:28:17;4.90;56.80
43808;DHT22;29438;50.664;10.098;2023-04-03T11:36:02;4.80;57.70
43808;DHT22;29438;50.664;10.098;2023-04-03T11:38:33;4.30;55.50
43808;DHT22;29438;50.664;10.098;2023-04-03T11:41:03;4.60;59.10
43808;DHT22;29438;50.664;10.098;2023-04-03T11:43:31;4.90;56.40
43808;DHT22;29438;50.664;10.098;2023-04-03T11:46:02;5.40;59.00
43808;DHT22;29438;50.664;10.098;2023-04-03T11:50:55;4.40;57.00
43808;DHT22;29438;50.664;10.098;2023-04-03T11:53:36;4.00;57.90
43808;DHT22;29438;50.664;10.098;2023-04-03T12:04:13;4.00;58.40
43808;DHT22;29438;50.664;10.098;2023-04-03T12:09:26;4.40;55.10
43808;DHT22;29438;50.664;10.098;2023-04-03T12:12:31;4.20;55.90
43808;DHT22;29438;50.664;10.098;2023-04-03T12:15:21;4.40;54.30
43808;DHT22;29438;50.664;10.098;2023-04-03T12:17:47;4.70;55.50
43808;DHT22;29438;50.664;10.098;2023-04-03T12:23:31;4.30;57.20
43808;DHT22;29438;50.664;10.098;2023-04-03T12:26:21;4.50;58.00
43808;DHT22;29438;50.664;10.098;2023-04-03T12:28:49;4.70;57.70
43808;DHT22;29438;50.664;10.098;2023-04-03T12:31:18;4.50;55.60
43808;DHT22;29438;50.664;10.098;2023-04-03T12:36:21;4.80;58.60
43808;DHT22;29438;50.664;10.098;2023-04-03T12:39:06;5.20;55.70
43808;DHT22;29438;50.664;10.098;2023-04-03T12:44:41;5.30;58.40
43808;DHT22;29438;50.664;10.098;2023-04-03T12:47:43;4.90;55.30
43808;DHT22;29438;50.664;10.098;2023-04-03T12:50:23;4.30;56.10
43808;DHT22;29438;50.664;10.098;2023-04-03T12:55:25;5.30;56.80
43808;DHT22;29438;50.664;10.098;2023-04-03T12:57:50;5.30;57.90
43808;DHT22;29438;50.664;10.098;2023-04-03T13:00:27;5.00;53.80
43808;DHT22;29438;50.664;10.098;2023-04-03T13:02:53;4.70;52.30
43808;DHT22;29438;50.664;10.098;2023-04-03T13:05:19;4.80;54.40
43808;DHT22;29438;50.664;10.098;2023-04-03T13:07:54;4.80;55.70
43808;DHT22;29438;50.664;10.098;2023-04-03T13:10:22;5.20;56.10
43808;DHT22;29438;50.664;10.098;2023-04-03T13:12:56;4.80;53.00
43808;DHT22;29438;50.664;10.098;2023-04-03T13:15:39;4.60;56.60
43808;DHT22;29438;50.664;10.098;2023-04-03T13:18:05;4.60;57.30
43808;DHT22;29438;50.664;10.098;2023-04-03T13:20:48;4.00;55.70
43808;DHT22;29438;50.664;10.098;2023-04-03T13:23:17;4.10;56.80
43808;DHT22;29438;50.664;10.098;2023-04-03T13:25:45;4.70;56.90
43808;DHT22;29438;50.664;10.098;2023-04-03T13:28:15;4.30;53.10
43808;DHT22;29438;50.664;10.098;2023-04-03T13:30:56;4.40;52.20
43808;DHT22;29438;50.664;10.098;2023-04-03T13:33:25;4.40;52.80
43808;DHT22;29438;50.664;10.098;2023-04-03T13:38:58;5.10;54.30
43808;DHT22;29438;50.664;10.098;2023-04-03T13:41:29;5.40;54.50
43808;DHT22;29438;50.664;10.098;2023-04-03T13:43:54;4.80;52.50
43808;DHT22;29438;50.664;10.098;2023-04-03T13:46:24;4.30;55.10
43808;DHT22;29438;50.664;10.098;2023-04-03T13:48:53;4.00;55.80
43808;DHT22;29438;50.664;10.098;2023-04-03T13:54:00;4.10;53.10
43808;DHT22;29438;50.664;10.098;2023-04-03T13:56:34;4.40;53.20
43808;DHT22;29438;50.664;10.098;2023-04-03T13:59:23;4.30;53.20
43808;DHT22;29438;50.664;10.098;2023-04-03T14:02:18;3.70;54.70
43808;DHT22;29438;50.664;10.098;2023-04-03T14:04:50;4.40;57.20
43808;DHT22;29438;50.664;10.098;2023-04-03T14:07:18;4.30;53.70
43808;DHT22;29438;50.664;10.098;2023-04-03T14:09:45;4.30;51.10
43808;DHT22;29438;50.664;10.098;2023-04-03T14:12:31;4.30;50.80
43808;DHT22;29438;50.664;10.098;2023-04-03T14:15:00;4.70;52.50
43808;DHT22;29438;50.664;10.098;2023-04-03T14:17:26;4.60;50.20
43808;DHT22;29438;50.664;10.098;2023-04-03T14:19:54;4.30;49.60
43808;DHT22;29438;50.664;10.098;2023-04-03T14:22:29;4.40;52.20
43808;DHT22;29438;50.664;10.098;2023-04-03T14:24:55;4.90;53.10
43808;DHT22;29438;50.664;10.098;2023-04-03T14:27:24;4.50;52.30
43808;DHT22;29438;50.664;10.098;2023-04-03T14:29:51;4.10;52.00
43808;DHT22;29438;50.664;10.098;2023-04-03T14:32:20;3.70;53.40
43808;DHT22;29438;50.664;10.098;2023-04-03T14:34:47;3.90;53.90
43808;DHT22;29438;50.664;10.098;2023-04-03T14:37:16;3.80;51.90
43808;DHT22;29438;50.664;10.098;2023-04-03T14:39:43;4.00;52.60
43808;DHT22;29438;50.664;10.098;2023-04-03T14:42:35;4.10;52.40
43808;DHT22;29438;50.664;10.098;2023-04-03T14:45:05;4.00;52.40
43808;DHT22;29438;50.664;10.098;2023-04-03T14:47:34;4.40;53.40
43808;DHT22;29438;50.664;10.098;2023-04-03T14:50:04;4.10;54.00
43808;DHT22;29438;50.664;10.098;2023-04-03T14:52:33;3.70;55.50
43808;DHT22;29438;50.664;10.098;2023-04-03T14:54:59;3.50;54.30
43808;DHT22;29438;50.664;10.098;2023-04-03T14:57:27;3.30;55.00
43808;DHT22;29438;50.664;10.098;2023-04-03T14:59:53;3.60;53.80
43808;DHT22;29438;50.664;10.098;2023-04-03T15:05:00;4.30;54.50
43808;DHT22;29438;50.664;10.098;2023-04-03T15:07:30;3.90;56.80
43808;DHT22;29438;50.664;10.098;2023-04-03T15:09:56;3.80;56.30
43808;DHT22;29438;50.664;10.098;2023-04-03T15:12:23;3.70;58.00
43808;DHT22;29438;50.664;10.098;2023-04-03T15:14:49;3.50;56.90
43808;DHT22;29438;50.664;10.098;2023-04-03T15:17:17;3.40;57.50
43808;DHT22;29438;50.664;10.098;2023-04-03T15:19:43;3.30;55.30
43808;DHT22;29438;50.664;10.098;2023-04-03T15:22:14;3.30;54.80
43808;DHT22;29438;50.664;10.098;2023-04-03T15:24:40;3.40;55.20
43808;DHT22;29438;50.664;10.098;2023-04-03T15:27:06;3.60;55.00
43808;DHT22;29438;50.664;10.098;2023-04-03T15:29:31;4.00;53.90
43808;DHT22;29438;50.664;10.098;2023-04-03T15:31:57;4.00;54.70
43808;DHT22;29438;50.664;10.098;2023-04-03T15:34:22;3.90;52.60
43808;DHT22;29438;50.664;10.098;2023-04-03T15:36:48;3.60;53.40
43808;DHT22;29438;50.664;10.098;2023-04-03T15:39:14;3.30;54.20
43808;DHT22;29438;50.664;10.098;2023-04-03T15:41:41;3.20;55.20
43808;DHT22;29438;50.664;10.098;2023-04-03T15:44:07;3.20;55.30
43808;DHT22;29438;50.664;10.098;2023-04-03T15:46:33;3.30;54.70
43808;DHT22;29438;50.664;10.098;2023-04-03T15:48:58;3.50;56.50
43808;DHT22;29438;50.664;10.098;2023-04-03T15:51:24;3.80;54.40
43808;DHT22;29438;50.664;10.098;2023-04-03T15:53:49;3.70;54.20
43808;DHT22;29438;50.664;10.098;2023-04-03T15:56:15;3.30;54.60
43808;DHT22;29438;50.664;10.098;2023-04-03T15:58:41;2.90;54.50
43808;DHT22;29438;50.664;10.098;2023-04-03T16:01:08;2.80;54.50
43808;DHT22;29438;50.664;10.098;2023-04-03T16:03:34;2.90;55.90
43808;DHT22;29438;50.664;10.098;2023-04-03T16:06:00;3.10;55.40
43808;DHT22;29438;50.664;10.098;2023-04-03T16:08:27;3.30;55.90
43808;DHT22;29438;50.664;10.098;2023-04-03T16:10:52;3.50;54.70
43808;DHT22;29438;50.664;10.098;2023-04-03T16:13:18;3.30;55.20
43808;DHT22;29438;50.664;10.098;2023-04-03T16:15:43;3.10;54.00
43808;DHT22;29438;50.664;10.098;2023-04-03T16:18:09;2.80;54.70
43808;DHT22;29438;50.664;10.098;2023-04-03T16:20:35;2.80;56.00
43808;DHT22;29438;50.664;10.098;2023-04-03T16:23:01;2.80;55.60
43808;DHT22;29438;50.664;10.098;2023-04-03T16:25:27;2.80;56.20